OOCL Kaohsiung — 9V9830 — position and weather

sailwx.info

Track history (hours):
 
Tides and Currents Weather Stations Pressure Air Temp Water Temp Dewpoint Dewpoint Depression Visibility Wind Speed Wind Dir Waves Ship Positions

OOCL Kaohsiung

Last reported at 2016-Apr-26 03:30 UTC. Time now 2016-May-06 14:59 UTC.
Position N 31°17' E 032°22'.
Warning: this ship's position is 10 days out of date.

Length 280 m; draft 12.7 m.

Type: Cargo ship. MMSI: 566389000.

Date/timePositionNaut miles runAvg speedWind from/ knotsBaromVisibWave heightAir tempDewpointWater temp
2016-Apr-26 03:30N 31°17' E 032°22'8 3.5
2016-Apr-26 01:14N 31°25' E 032°19'0 0.1
2016-Apr-26 00:32N 31°25' E 032°19'0 0.0
2016-Apr-25 21:32N 31°24' E 032°19'0 0.0
2016-Apr-25 20:32N 31°24' E 032°19'0 0.0
2016-Apr-25 19:32N 31°24' E 032°19'0 0.0
2016-Apr-25 18:32N 31°24' E 032°19'0 0.0
2016-Apr-25 17:29N 31°24' E 032°19'0 0.0
2016-Apr-25 16:32N 31°24' E 032°19'0 0.0
2016-Apr-25 15:29N 31°24' E 032°19'0 0.0
2016-Apr-25 14:32N 31°24' E 032°19'0 0.0
2016-Apr-25 13:32N 31°24' E 032°19'0 0.0
2016-Apr-25 12:32N 31°24' E 032°20'0 0.0
2016-Apr-25 11:32N 31°24' E 032°19'0 0.0
2016-Apr-25 08:11N 31°24' E 032°20'0 0.0
2016-Apr-25 07:29N 31°24' E 032°20'0 0.0
2016-Apr-25 06:29N 31°24' E 032°20'0 0.0
2016-Apr-25 05:29N 31°24' E 032°20'0 0.0
2016-Apr-25 04:29N 31°24' E 032°20'0 0.0
2016-Apr-25 03:29N 31°24' E 032°20'25 6.4
2016-Apr-24 23:33N 31°43' E 031°60'19 4.4
2016-Apr-24 19:07N 31°28' E 031°45'0 0.0
2016-Apr-24 17:28N 31°28' E 031°45'0 0.0
2016-Apr-24 16:25N 31°28' E 031°45'0 0.0
2016-Apr-24 15:16N 31°28' E 031°45'0 0.0
2016-Apr-24 14:28N 31°28' E 031°45'0 0.0
2016-Apr-24 13:31N 31°28' E 031°45'0 0.0
2016-Apr-24 12:28N 31°28' E 031°45'0 0.0
2016-Apr-24 11:04N 31°28' E 031°45'0 0.0
2016-Apr-24 10:31N 31°28' E 031°45'0 0.0
2016-Apr-24 09:28N 31°28' E 031°45'0 0.0
2016-Apr-24 07:13N 31°28' E 031°45'0 0.0
2016-Apr-24 06:22N 31°28' E 031°45'0 0.0
2016-Apr-24 02:16N 31°28' E 031°45'0 0.0
2016-Apr-23 20:33N 31°28' E 031°45'8 7.7
2016-Apr-23 19:33N 31°36' E 031°47'9 8.7
2016-Apr-23 18:33N 31°43' E 031°42'1514.6
2016-Apr-23 17:34N 31°55' E 031°32'1716.8
2016-Apr-23 16:34N 32°02' E 031°14'1717.1
2016-Apr-23 15:33N 32°09' E 030°56'1716.9
2016-Apr-23 14:33N 32°16' E 030°38'1717.5
2016-Apr-23 13:34N 32°22' E 030°18'2317.8
2016-Apr-23 12:17N 32°31' E 029°54'1318.2
2016-Apr-23 11:34N 32°36' E 029°39'1817.7
2016-Apr-23 10:34N 32°43' E 029°20'1817.9
2016-Apr-23 09:33N 32°49' E 028°60'1818.3
2016-Apr-23 08:33N 32°56' E 028°39'71519.1
2016-Apr-21 19:07N 36°21' E 014°47'1120.1
2016-Apr-21 18:34N 36°24' E 014°33'2019.8
2016-Apr-21 17:33N 36°34' E 014°12'2019.6
2016-Apr-21 16:33N 36°43' E 013°50'2019.4
2016-Apr-21 15:31N 36°53' E 013°29'8120.3
2016-Apr-21 11:32N 37°38' E 012°04'2819.5
2016-Apr-21 10:05N 37°53' E 011°34'1319.2
2016-Apr-21 09:23N 38°02' E 011°21'1619.5
2016-Apr-21 08:33N 38°10' E 011°03'8419.7
2016-Apr-21 04:19N 38°53' E 009°32'1519.5
2016-Apr-21 03:33N 39°01' E 009°15'1212.3
2016-Apr-21 02:33N 39°11' E 009°06'2 2.4
2016-Apr-21 01:33N 39°13' E 009°04'0 0.0
2016-Apr-21 00:32N 39°13' E 009°04'0 0.0
2016-Apr-20 23:32N 39°13' E 009°04'0 0.0
2016-Apr-20 22:32N 39°13' E 009°04'0 0.0
2016-Apr-20 21:32N 39°13' E 009°04'0 0.0
2016-Apr-20 20:32N 39°13' E 009°04'0 0.0
2016-Apr-20 19:32N 39°13' E 009°04'0 0.0
2016-Apr-20 18:32N 39°13' E 009°04'0 0.0
2016-Apr-20 17:32N 39°13' E 009°04'0 0.0
2016-Apr-20 16:32N 39°13' E 009°04'0 0.0
2016-Apr-20 15:32N 39°13' E 009°04'0 0.0
2016-Apr-20 14:32N 39°13' E 009°04'0 0.0
2016-Apr-20 13:32N 39°13' E 009°04'0 0.0
2016-Apr-20 12:32N 39°13' E 009°04'0 0.2
2016-Apr-20 11:33N 39°13' E 009°04'7 7.3
2016-Apr-20 10:32N 39°05' E 009°06'6 5.8
2016-Apr-20 09:32N 39°00' E 009°10'2 1.5
2016-Apr-20 08:33N 38°60' E 009°09'1 0.6
2016-Apr-20 07:33N 38°60' E 009°09'0 0.5
2016-Apr-20 06:33N 38°60' E 009°10'0 0.4
2016-Apr-20 05:33N 38°59' E 009°10'0 0.3
2016-Apr-20 04:33N 38°59' E 009°10'0 0.2
2016-Apr-20 03:33N 38°59' E 009°10'0 0.2
2016-Apr-20 02:33N 38°59' E 009°10'8 8.3
2016-Apr-20 01:32N 38°54' E 009°02'1515.1
2016-Apr-20 00:32N 38°44' E 008°47'1515.6
2016-Apr-19 23:33N 38°35' E 008°31'10514.2
2016-Apr-19 16:09N 38°13' E 006°20'17415.0
2016-Apr-19 04:33N 37°28' E 002°46'8816.0
2016-Apr-18 23:04N 37°04' E 000°60'815.8
2016-Apr-18 22:33N 37°01' E 000°50'1716.1
2016-Apr-18 21:31N 36°56' E 000°30'1515.5
2016-Apr-18 20:33N 36°52' E 000°12'1413.8
2016-Apr-18 19:32N 36°49' W 000°05'1413.9
2016-Apr-18 18:33N 36°46' W 000°21'1414.2
2016-Apr-18 17:33N 36°42' W 000°38'1414.3
2016-Apr-18 16:33N 36°38' W 000°55'1714.4
2016-Apr-18 15:22N 36°32' W 001°15'19816.7
2016-Apr-18 03:33N 35°60' W 005°17'  
Track history (hours):
 
Tides and Currents Weather Stations Pressure Air Temp Water Temp Dewpoint Dewpoint Depression Visibility Wind Speed Wind Dir Waves Ship Positions

OOCL Kaohsiung

Last reported at 2016-Apr-26 03:30 UTC. Time now 2016-May-06 14:59 UTC.
Position N 31°17' E 032°22'.
Warning: this ship's position is 10 days out of date.

Length 280 m; draft 12.7 m.

Type: Cargo ship. MMSI: 566389000.

Date/timePositionNaut miles runAvg speedWind from/ knotsBaromVisibWave heightAir tempDewpointWater temp
2016-Apr-26 03:30N 31°17' E 032°22'8 3.5
2016-Apr-26 01:14N 31°25' E 032°19'0 0.1
2016-Apr-26 00:32N 31°25' E 032°19'0 0.0
2016-Apr-25 21:32N 31°24' E 032°19'0 0.0
2016-Apr-25 20:32N 31°24' E 032°19'0 0.0
2016-Apr-25 19:32N 31°24' E 032°19'0 0.0
2016-Apr-25 18:32N 31°24' E 032°19'0 0.0
2016-Apr-25 17:29N 31°24' E 032°19'0 0.0
2016-Apr-25 16:32N 31°24' E 032°19'0 0.0
2016-Apr-25 15:29N 31°24' E 032°19'0 0.0
2016-Apr-25 14:32N 31°24' E 032°19'0 0.0
2016-Apr-25 13:32N 31°24' E 032°19'0 0.0
2016-Apr-25 12:32N 31°24' E 032°20'0 0.0
2016-Apr-25 11:32N 31°24' E 032°19'0 0.0
2016-Apr-25 08:11N 31°24' E 032°20'0 0.0
2016-Apr-25 07:29N 31°24' E 032°20'0 0.0
2016-Apr-25 06:29N 31°24' E 032°20'0 0.0
2016-Apr-25 05:29N 31°24' E 032°20'0 0.0
2016-Apr-25 04:29N 31°24' E 032°20'0 0.0
2016-Apr-25 03:29N 31°24' E 032°20'25 6.4
2016-Apr-24 23:33N 31°43' E 031°60'19 4.4
2016-Apr-24 19:07N 31°28' E 031°45'0 0.0
2016-Apr-24 17:28N 31°28' E 031°45'0 0.0
2016-Apr-24 16:25N 31°28' E 031°45'0 0.0
2016-Apr-24 15:16N 31°28' E 031°45'0 0.0
2016-Apr-24 14:28N 31°28' E 031°45'0 0.0
2016-Apr-24 13:31N 31°28' E 031°45'0 0.0
2016-Apr-24 12:28N 31°28' E 031°45'0 0.0
2016-Apr-24 11:04N 31°28' E 031°45'0 0.0
2016-Apr-24 10:31N 31°28' E 031°45'0 0.0
2016-Apr-24 09:28N 31°28' E 031°45'0 0.0
2016-Apr-24 07:13N 31°28' E 031°45'0 0.0
2016-Apr-24 06:22N 31°28' E 031°45'0 0.0
2016-Apr-24 02:16N 31°28' E 031°45'0 0.0
2016-Apr-23 20:33N 31°28' E 031°45'8 7.7
2016-Apr-23 19:33N 31°36' E 031°47'9 8.7
2016-Apr-23 18:33N 31°43' E 031°42'1514.6
2016-Apr-23 17:34N 31°55' E 031°32'1716.8
2016-Apr-23 16:34N 32°02' E 031°14'1717.1
2016-Apr-23 15:33N 32°09' E 030°56'1716.9
2016-Apr-23 14:33N 32°16' E 030°38'1717.5
2016-Apr-23 13:34N 32°22' E 030°18'2317.8
2016-Apr-23 12:17N 32°31' E 029°54'1318.2
2016-Apr-23 11:34N 32°36' E 029°39'1817.7
2016-Apr-23 10:34N 32°43' E 029°20'1817.9
2016-Apr-23 09:33N 32°49' E 028°60'1818.3
2016-Apr-23 08:33N 32°56' E 028°39'71519.1
2016-Apr-21 19:07N 36°21' E 014°47'1120.1
2016-Apr-21 18:34N 36°24' E 014°33'2019.8
2016-Apr-21 17:33N 36°34' E 014°12'2019.6
2016-Apr-21 16:33N 36°43' E 013°50'2019.4
2016-Apr-21 15:31N 36°53' E 013°29'8120.3
2016-Apr-21 11:32N 37°38' E 012°04'2819.5
2016-Apr-21 10:05N 37°53' E 011°34'1319.2
2016-Apr-21 09:23N 38°02' E 011°21'1619.5
2016-Apr-21 08:33N 38°10' E 011°03'8419.7
2016-Apr-21 04:19N 38°53' E 009°32'1519.5
2016-Apr-21 03:33N 39°01' E 009°15'1212.3
2016-Apr-21 02:33N 39°11' E 009°06'2 2.4
2016-Apr-21 01:33N 39°13' E 009°04'0 0.0
2016-Apr-21 00:32N 39°13' E 009°04'0 0.0
2016-Apr-20 23:32N 39°13' E 009°04'0 0.0
2016-Apr-20 22:32N 39°13' E 009°04'0 0.0
2016-Apr-20 21:32N 39°13' E 009°04'0 0.0
2016-Apr-20 20:32N 39°13' E 009°04'0 0.0
2016-Apr-20 19:32N 39°13' E 009°04'0 0.0
2016-Apr-20 18:32N 39°13' E 009°04'0 0.0
2016-Apr-20 17:32N 39°13' E 009°04'0 0.0
2016-Apr-20 16:32N 39°13' E 009°04'0 0.0
2016-Apr-20 15:32N 39°13' E 009°04'0 0.0
2016-Apr-20 14:32N 39°13' E 009°04'0 0.0
2016-Apr-20 13:32N 39°13' E 009°04'0 0.0
2016-Apr-20 12:32N 39°13' E 009°04'0 0.2
2016-Apr-20 11:33N 39°13' E 009°04'7 7.3
2016-Apr-20 10:32N 39°05' E 009°06'6 5.8
2016-Apr-20 09:32N 39°00' E 009°10'2 1.5
2016-Apr-20 08:33N 38°60' E 009°09'1 0.6
2016-Apr-20 07:33N 38°60' E 009°09'0 0.5
2016-Apr-20 06:33N 38°60' E 009°10'0 0.4
2016-Apr-20 05:33N 38°59' E 009°10'0 0.3
2016-Apr-20 04:33N 38°59' E 009°10'0 0.2
2016-Apr-20 03:33N 38°59' E 009°10'0 0.2
2016-Apr-20 02:33N 38°59' E 009°10'8 8.3
2016-Apr-20 01:32N 38°54' E 009°02'1515.1
2016-Apr-20 00:32N 38°44' E 008°47'1515.6
2016-Apr-19 23:33N 38°35' E 008°31'10514.2
2016-Apr-19 16:09N 38°13' E 006°20'17415.0
2016-Apr-19 04:33N 37°28' E 002°46'8816.0
2016-Apr-18 23:04N 37°04' E 000°60'815.8
2016-Apr-18 22:33N 37°01' E 000°50'1716.1
2016-Apr-18 21:31N 36°56' E 000°30'1515.5
2016-Apr-18 20:33N 36°52' E 000°12'1413.8
2016-Apr-18 19:32N 36°49' W 000°05'1413.9
2016-Apr-18 18:33N 36°46' W 000°21'1414.2
2016-Apr-18 17:33N 36°42' W 000°38'1414.3
2016-Apr-18 16:33N 36°38' W 000°55'1714.4
2016-Apr-18 15:22N 36°32' W 001°15'19816.7
2016-Apr-18 03:33N 35°60' W 005°17'  

Dump ship's entire track history